createdAt,value
2017-09-28T00:00:46.327Z,72.22
2017-09-28T00:01:46.252Z,71.73
2017-09-28T00:02:46.176Z,71.73
2017-09-28T00:03:46.091Z,72.22
2017-09-28T00:04:46.017Z,72.12
2017-09-28T00:05:45.937Z,71.93
2017-09-28T00:06:45.855Z,71.93
2017-09-28T00:07:45.790Z,72.02
2017-09-28T00:08:45.709Z,72.12
2017-09-28T00:09:45.619Z,72.28
2017-09-28T00:10:45.539Z,72.37
2017-09-28T00:11:45.464Z,72.02
2017-09-28T00:12:45.384Z,72.02
2017-09-28T00:13:45.299Z,71.70
2017-09-28T00:14:45.235Z,71.89
2017-09-28T00:15:45.143Z,72.85
2017-09-28T00:16:45.063Z,72.37
2017-09-28T00:17:44.985Z,72.85
2017-09-28T00:18:44.911Z,72.85
2017-09-28T00:19:44.833Z,72.85
2017-09-28T00:20:44.763Z,72.85
2017-09-28T00:21:44.670Z,72.18
2017-09-28T00:22:44.594Z,72.37
2017-09-28T00:23:44.537Z,72.47
2017-09-28T00:24:44.433Z,73.04
2017-09-28T00:25:44.354Z,73.81
2017-09-28T00:26:44.275Z,73.24
2017-09-28T00:27:44.199Z,72.95
2017-09-28T00:28:44.122Z,71.89
2017-09-28T00:29:44.040Z,71.80
2017-09-28T00:30:43.961Z,71.98
2017-09-28T00:31:43.885Z,72.47
2017-09-28T00:32:43.804Z,72.75
2017-09-28T00:33:43.722Z,72.75
2017-09-28T00:34:43.647Z,72.28
2017-09-28T00:35:43.560Z,72.66
2017-09-28T00:36:43.479Z,72.85
2017-09-28T00:37:43.404Z,72.75
2017-09-28T00:38:43.325Z,72.18
2017-09-28T00:39:43.244Z,72.85
2017-09-28T00:40:43.161Z,72.66
2017-09-28T00:41:43.082Z,72.37
2017-09-28T00:42:43.002Z,73.58
2017-09-28T00:43:42.925Z,74.83
2017-09-28T00:44:42.843Z,75.02
2017-09-28T00:45:42.771Z,74.06
2017-09-28T00:46:42.698Z,73.87
2017-09-28T00:47:42.609Z,73.52
2017-09-28T00:48:42.532Z,73.24
2017-09-28T00:49:42.452Z,73.58
2017-09-28T00:50:42.377Z,74.16
2017-09-28T00:51:42.292Z,73.77
2017-09-28T00:52:42.225Z,73.68
2017-09-28T00:53:42.130Z,73.97
2017-09-28T00:54:42.048Z,73.97
2017-09-28T00:55:41.974Z,74.06
2017-09-28T00:56:41.892Z,73.81
2017-09-28T00:57:41.812Z,73.97
2017-09-28T00:58:41.736Z,74.06
2017-09-28T00:59:41.665Z,74.06
2017-09-28T01:00:41.576Z,73.97
2017-09-28T01:01:41.492Z,74.06
2017-09-28T01:02:41.427Z,74.26
2017-09-28T01:03:41.335Z,74.93
2017-09-28T01:04:41.253Z,73.68
2017-09-28T01:05:41.178Z,75.95
2017-09-28T01:06:41.094Z,75.95
2017-09-28T01:07:41.025Z,75.89
2017-09-28T01:08:40.934Z,74.73
2017-09-28T01:09:40.862Z,75.21
2017-09-28T01:10:40.774Z,75.12
2017-09-28T01:11:40.697Z,74.44
2017-09-28T01:12:40.618Z,73.77
2017-09-28T01:13:40.539Z,74.06
2017-09-28T01:14:40.461Z,74.06
2017-09-28T01:15:40.383Z,73.87
2017-09-28T01:16:40.312Z,74.35
2017-09-28T01:17:40.223Z,73.87
2017-09-28T01:18:40.170Z,74.35
2017-09-28T01:19:40.076Z,74.44
2017-09-28T01:20:39.984Z,74.26
2017-09-28T01:21:39.922Z,74.64
2017-09-28T01:22:39.840Z,74.93
2017-09-28T01:23:39.750Z,74.64
2017-09-28T01:24:39.671Z,73.87
2017-09-28T01:25:39.581Z,73.97
2017-09-28T01:26:39.506Z,74.06
2017-09-28T01:27:39.423Z,74.26
2017-09-28T01:28:39.345Z,73.77
2017-09-28T01:29:39.270Z,75.02
2017-09-28T01:30:39.184Z,74.54
2017-09-28T01:31:39.119Z,75.02
2017-09-28T01:32:39.021Z,74.73
2017-09-28T01:33:38.942Z,73.97
2017-09-28T01:34:38.873Z,74.26
2017-09-28T01:35:38.785Z,73.52
2017-09-28T01:36:38.702Z,73.68
2017-09-28T01:37:38.640Z,73.68
2017-09-28T01:38:38.550Z,73.58
2017-09-28T01:39:38.478Z,73.43
2017-09-28T01:40:38.393Z,73.43
2017-09-28T01:41:38.308Z,73.58
2017-09-28T01:42:38.228Z,73.49
2017-09-28T01:43:38.175Z,73.87
2017-09-28T01:44:38.070Z,73.97
2017-09-28T01:45:37.991Z,74.06
2017-09-28T01:46:37.911Z,73.43
2017-09-28T01:47:37.831Z,74.06
2017-09-28T01:48:37.751Z,74.64
2017-09-28T01:49:37.684Z,73.97
2017-09-28T01:50:37.589Z,73.97
2017-09-28T01:51:37.512Z,74.16
2017-09-28T01:52:37.442Z,74.06
2017-09-28T01:53:37.360Z,74.44
2017-09-28T01:54:37.296Z,74.83
2017-09-28T01:55:37.196Z,74.83
2017-09-28T01:56:37.121Z,74.93
2017-09-28T01:57:37.047Z,74.93
2017-09-28T01:58:36.962Z,74.64
2017-09-28T01:59:36.876Z,74.44
2017-09-28T02:00:36.795Z,75.02
2017-09-28T02:01:36.729Z,74.73
2017-09-28T02:02:36.638Z,75.02
2017-09-28T02:03:36.554Z,75.02
2017-09-28T02:04:36.502Z,74.93
2017-09-28T02:05:36.399Z,74.16
2017-09-28T02:06:36.325Z,74.06
2017-09-28T02:07:36.241Z,74.16
2017-09-28T02:08:36.162Z,74.26
2017-09-28T02:09:36.078Z,74.44
2017-09-28T02:10:35.997Z,74.93
2017-09-28T02:11:35.918Z,74.93
2017-09-28T02:12:35.836Z,74.54
2017-09-28T02:13:35.757Z,74.64
2017-09-28T02:14:35.687Z,74.73
2017-09-28T02:15:35.597Z,74.64
2017-09-28T02:16:35.518Z,75.12
2017-09-28T02:17:35.449Z,75.12
2017-09-28T02:18:35.360Z,75.02
2017-09-28T02:19:35.281Z,75.12
2017-09-28T02:20:35.200Z,75.18
2017-09-28T02:21:35.128Z,75.27
2017-09-28T02:22:35.042Z,75.70
2017-09-28T02:23:34.960Z,75.50
2017-09-28T02:24:34.882Z,75.46
2017-09-28T02:25:34.802Z,75.79
2017-09-28T02:26:34.722Z,74.83
2017-09-28T02:27:34.642Z,74.73
2017-09-28T02:28:34.561Z,74.83
2017-09-28T02:29:34.484Z,75.21
2017-09-28T02:30:34.416Z,75.70
2017-09-28T02:31:34.323Z,75.21
2017-09-28T02:32:34.242Z,76.04
2017-09-28T02:33:34.169Z,75.02
2017-09-28T02:34:34.090Z,75.46
2017-09-28T02:35:34.004Z,75.21
2017-09-28T02:36:33.924Z,75.60
2017-09-28T02:37:33.848Z,75.40
2017-09-28T02:38:33.761Z,76.04
2017-09-28T02:39:33.685Z,75.95
2017-09-28T02:40:33.613Z,75.56
2017-09-28T02:41:33.525Z,75.60
2017-09-28T02:42:33.460Z,75.12
2017-09-28T02:43:33.377Z,75.31
2017-09-28T02:44:33.285Z,75.31
2017-09-28T02:45:33.203Z,74.98
2017-09-28T02:46:33.127Z,76.23
2017-09-28T02:47:33.058Z,76.14
2017-09-28T02:48:32.967Z,76.07
2017-09-28T02:49:32.888Z,75.21
2017-09-28T02:50:32.807Z,75.70
2017-09-28T02:51:32.728Z,75.79
2017-09-28T02:52:32.650Z,75.50
2017-09-28T02:53:32.567Z,76.04
2017-09-28T02:54:32.485Z,75.95
2017-09-28T02:55:32.411Z,75.18
2017-09-28T02:56:32.330Z,75.95
2017-09-28T02:57:32.248Z,75.75
2017-09-28T02:58:32.163Z,75.89
2017-09-28T02:59:32.088Z,75.18
2017-09-28T03:00:32.014Z,76.04
2017-09-28T03:01:31.928Z,75.85
2017-09-28T03:02:31.844Z,76.04
2017-09-28T03:03:31.771Z,75.65
2017-09-28T03:04:31.694Z,75.27
2017-09-28T03:05:31.606Z,75.46
2017-09-28T03:06:31.527Z,76.04
2017-09-28T03:07:31.448Z,76.62
2017-09-28T03:08:31.365Z,76.32
2017-09-28T03:09:31.291Z,76.14
2017-09-28T03:10:31.210Z,75.08
2017-09-28T03:11:31.130Z,75.37
2017-09-28T03:12:31.057Z,75.95
2017-09-28T03:13:30.974Z,76.32
2017-09-28T03:14:30.887Z,76.32
2017-09-28T03:15:30.830Z,76.32
2017-09-28T03:16:30.746Z,76.23
2017-09-28T03:17:30.653Z,76.04
2017-09-28T03:18:30.588Z,76.04
2017-09-28T03:19:30.492Z,75.85
2017-09-28T03:20:30.418Z,76.52
2017-09-28T03:21:30.333Z,76.23
2017-09-28T03:22:30.254Z,75.75
2017-09-28T03:23:30.172Z,76.14
2017-09-28T03:24:30.090Z,76.04
2017-09-28T03:25:30.012Z,76.04
2017-09-28T03:26:29.934Z,75.95
2017-09-28T03:27:29.852Z,75.46
2017-09-28T03:28:29.771Z,74.98
2017-09-28T03:29:29.692Z,75.21
2017-09-28T03:30:29.619Z,74.98
2017-09-28T03:31:29.532Z,75.56
2017-09-28T03:32:29.453Z,75.65
2017-09-28T03:33:29.372Z,75.65
2017-09-28T03:34:29.294Z,75.27
2017-09-28T03:35:29.211Z,75.46
2017-09-28T03:36:29.138Z,75.95
2017-09-28T03:37:29.049Z,75.46
2017-09-28T03:38:28.976Z,75.65
2017-09-28T03:39:28.892Z,74.98
2017-09-28T03:40:28.850Z,74.83
2017-09-28T03:41:28.736Z,75.18
2017-09-28T03:42:28.650Z,75.08
2017-09-28T03:43:28.575Z,75.18
2017-09-28T03:44:28.493Z,75.18
2017-09-28T03:45:28.414Z,75.37
2017-09-28T03:46:28.333Z,76.04
2017-09-28T03:47:28.259Z,76.04
2017-09-28T03:48:28.169Z,75.37
2017-09-28T03:49:28.104Z,75.37
2017-09-28T03:50:28.016Z,75.27
2017-09-28T03:51:27.934Z,75.37
2017-09-28T03:52:27.854Z,74.89
2017-09-28T03:53:27.771Z,75.46
2017-09-28T03:54:27.692Z,75.75
2017-09-28T03:55:27.614Z,75.95
2017-09-28T03:56:27.535Z,75.27
2017-09-28T03:57:27.456Z,75.08
2017-09-28T03:58:27.376Z,75.56
2017-09-28T03:59:27.297Z,75.65
2017-09-28T04:00:27.215Z,75.08
2017-09-28T04:01:27.133Z,75.56
2017-09-28T04:02:27.059Z,75.08
2017-09-28T04:03:27.016Z,74.98
2017-09-28T04:04:26.897Z,76.04
2017-09-28T04:05:26.809Z,76.32
2017-09-28T04:06:26.736Z,75.95
2017-09-28T04:07:26.655Z,76.14
2017-09-28T04:08:26.570Z,75.75
2017-09-28T04:09:26.495Z,75.95
2017-09-28T04:10:26.435Z,76.32
2017-09-28T04:11:26.336Z,76.04
2017-09-28T04:12:26.259Z,75.95
2017-09-28T04:13:26.182Z,76.52
2017-09-28T04:14:26.098Z,76.42
2017-09-28T04:15:26.017Z,76.23
2017-09-28T04:16:25.933Z,75.85
2017-09-28T04:17:25.856Z,76.04
2017-09-28T04:18:25.776Z,75.46
2017-09-28T04:19:25.699Z,75.56
2017-09-28T04:20:25.620Z,74.98
2017-09-28T04:21:25.535Z,75.85
2017-09-28T04:22:25.453Z,76.04
2017-09-28T04:23:25.382Z,76.04
2017-09-28T04:24:25.294Z,76.04
2017-09-28T04:25:25.211Z,75.85
2017-09-28T04:26:25.134Z,76.23
2017-09-28T04:27:25.055Z,76.19
2017-09-28T04:28:24.994Z,76.00
2017-09-28T04:29:24.894Z,76.10
2017-09-28T04:30:24.816Z,76.67
2017-09-28T04:31:24.734Z,76.77
2017-09-28T04:32:24.654Z,76.10
2017-09-28T04:33:24.570Z,76.86
2017-09-28T04:34:24.491Z,77.06
2017-09-28T04:35:24.418Z,76.48
2017-09-28T04:36:24.338Z,77.06
2017-09-28T04:37:24.252Z,76.96
2017-09-28T04:38:24.173Z,76.77
2017-09-28T04:39:24.096Z,76.29
2017-09-28T04:40:24.011Z,76.48
2017-09-28T04:41:23.933Z,76.62
2017-09-28T04:42:23.857Z,75.95
2017-09-28T04:43:23.771Z,76.57
2017-09-28T04:44:23.691Z,76.19
2017-09-28T04:45:23.607Z,76.04
2017-09-28T04:46:23.532Z,76.42
2017-09-28T04:47:23.452Z,76.04
2017-09-28T04:48:23.376Z,76.00
2017-09-28T04:49:23.289Z,76.57
2017-09-28T04:50:23.209Z,76.48
2017-09-28T04:51:23.132Z,75.81
2017-09-28T04:52:23.050Z,75.71
2017-09-28T04:53:22.969Z,76.00
2017-09-28T04:54:22.887Z,75.23
2017-09-28T04:55:22.816Z,75.04
2017-09-28T04:56:22.730Z,75.81
2017-09-28T04:57:22.690Z,76.77
2017-09-28T04:58:22.570Z,76.67
2017-09-28T04:59:22.501Z,76.77
2017-09-28T05:00:22.408Z,77.06
2017-09-28T05:01:22.330Z,76.77
2017-09-28T05:02:22.253Z,76.67
2017-09-28T05:03:22.168Z,76.67
2017-09-28T05:04:22.124Z,77.06
2017-09-28T05:05:22.016Z,76.39
2017-09-28T05:06:21.926Z,75.62
2017-09-28T05:07:21.846Z,75.62
2017-09-28T05:08:21.767Z,75.81
2017-09-28T05:09:21.684Z,75.81
2017-09-28T05:10:21.604Z,75.43
2017-09-28T05:11:21.526Z,75.23
2017-09-28T05:12:21.443Z,75.90
2017-09-28T05:13:21.365Z,76.29
2017-09-28T05:14:21.295Z,76.48
2017-09-28T05:15:21.212Z,76.19
2017-09-28T05:16:21.135Z,76.48
2017-09-28T05:17:21.051Z,76.29
2017-09-28T05:18:20.966Z,76.57
2017-09-28T05:19:20.888Z,76.48
2017-09-28T05:20:20.801Z,76.67
2017-09-28T05:21:20.727Z,76.29
2017-09-28T05:22:20.641Z,76.00
2017-09-28T05:23:20.567Z,76.29
2017-09-28T05:24:20.499Z,76.29
2017-09-28T05:25:20.402Z,76.29
2017-09-28T05:26:20.321Z,76.19
2017-09-28T05:27:20.241Z,76.19
2017-09-28T05:28:20.173Z,76.29
2017-09-28T05:29:20.084Z,76.39
2017-09-28T05:30:20.002Z,76.96
2017-09-28T05:31:19.923Z,76.48
2017-09-28T05:32:19.843Z,77.15
2017-09-28T05:33:19.765Z,76.77
2017-09-28T05:34:19.684Z,76.48
2017-09-28T05:35:19.605Z,76.48
2017-09-28T05:36:19.524Z,76.29
2017-09-28T05:37:19.440Z,76.57
2017-09-28T05:38:19.363Z,76.67
2017-09-28T05:39:19.281Z,76.86
2017-09-28T05:40:19.192Z,76.86
2017-09-28T05:41:19.131Z,76.67
2017-09-28T05:42:19.036Z,76.77
2017-09-28T05:43:18.958Z,76.39
2017-09-28T05:44:18.884Z,76.39
2017-09-28T05:45:18.799Z,76.48
2017-09-28T05:46:18.715Z,76.10
2017-09-28T05:47:18.637Z,76.29
2017-09-28T05:48:18.555Z,76.77
2017-09-28T05:49:18.473Z,76.48
2017-09-28T05:50:18.394Z,76.77
2017-09-28T05:51:18.312Z,76.86
2017-09-28T05:52:18.267Z,76.57
2017-09-28T05:53:18.151Z,77.25
2017-09-28T05:54:18.074Z,77.15
2017-09-28T05:55:17.995Z,77.44
2017-09-28T05:56:17.915Z,77.25
2017-09-28T05:57:17.828Z,77.25
2017-09-28T05:58:17.749Z,77.15
2017-09-28T05:59:17.673Z,77.15
2017-09-28T06:00:17.596Z,77.44
2017-09-28T06:01:17.514Z,77.92
2017-09-28T06:02:17.447Z,78.11
2017-09-28T06:03:17.357Z,77.73
2017-09-28T06:04:17.274Z,76.96
2017-09-28T06:05:17.185Z,76.77
2017-09-28T06:06:17.107Z,76.77
2017-09-28T06:07:17.061Z,76.77
2017-09-28T06:08:16.963Z,77.25
2017-09-28T06:09:16.875Z,77.44
2017-09-28T06:10:16.789Z,77.06
2017-09-28T06:11:16.712Z,77.15
2017-09-28T06:12:16.626Z,77.92
2017-09-28T06:13:16.550Z,77.53
2017-09-28T06:14:16.492Z,76.86
2017-09-28T06:15:16.398Z,76.67
2017-09-28T06:16:16.306Z,76.86
2017-09-28T06:17:16.227Z,76.57
2017-09-28T06:18:16.155Z,76.57
2017-09-28T06:19:16.069Z,76.86
2017-09-28T06:20:15.985Z,77.44
2017-09-28T06:21:15.911Z,77.15
2017-09-28T06:22:15.840Z,76.96
2017-09-28T06:23:15.760Z,77.73
2017-09-28T06:24:15.666Z,77.53
2017-09-28T06:25:15.585Z,77.92
2017-09-28T06:26:15.507Z,78.02
2017-09-28T06:27:15.428Z,77.63
2017-09-28T06:28:15.354Z,77.63
2017-09-28T06:29:15.276Z,77.15
2017-09-28T06:30:15.196Z,77.09
2017-09-28T06:31:15.113Z,77.48
2017-09-28T06:32:15.026Z,77.19
2017-09-28T06:33:14.951Z,77.19
2017-09-28T06:34:14.864Z,77.19
2017-09-28T06:35:14.798Z,76.52
2017-09-28T06:36:14.714Z,77.44
2017-09-28T06:37:14.637Z,77.63
2017-09-28T06:38:14.545Z,77.73
2017-09-28T06:39:14.471Z,77.58
2017-09-28T06:40:14.389Z,77.19
2017-09-28T06:41:14.305Z,77.19
2017-09-28T06:42:14.237Z,76.81
2017-09-28T06:43:14.154Z,76.62
2017-09-28T06:44:14.071Z,76.42
2017-09-28T06:45:13.987Z,76.23
2017-09-28T06:46:13.920Z,76.46
2017-09-28T06:47:13.828Z,76.46
2017-09-28T06:48:13.748Z,75.98
2017-09-28T06:49:13.671Z,76.62
2017-09-28T06:50:13.604Z,76.90
2017-09-28T06:51:13.514Z,76.81
2017-09-28T06:52:13.437Z,76.71
2017-09-28T06:53:13.358Z,76.75
2017-09-28T06:54:13.280Z,76.81
2017-09-28T06:55:13.200Z,77.04
2017-09-28T06:56:13.134Z,76.84
2017-09-28T06:57:13.035Z,76.94
2017-09-28T06:58:12.959Z,76.65
2017-09-28T06:59:12.877Z,76.84
2017-09-28T07:00:12.797Z,76.94
2017-09-28T07:01:12.718Z,76.75
2017-09-28T07:02:12.646Z,76.65
2017-09-28T07:03:12.558Z,76.94
2017-09-28T07:04:12.481Z,76.84
2017-09-28T07:05:12.429Z,76.37
2017-09-28T07:06:12.328Z,76.65
2017-09-28T07:07:12.244Z,75.70
2017-09-28T07:08:12.161Z,75.70
2017-09-28T07:09:12.079Z,77.09
2017-09-28T07:10:12.008Z,76.84
2017-09-28T07:11:11.928Z,76.65
2017-09-28T07:12:11.845Z,76.17
2017-09-28T07:13:11.765Z,76.62
2017-09-28T07:14:11.689Z,77.09
2017-09-28T07:15:11.624Z,77.38
2017-09-28T07:16:11.522Z,77.80
2017-09-28T07:17:11.451Z,77.29
2017-09-28T07:18:11.370Z,76.71
2017-09-28T07:19:11.289Z,76.94
2017-09-28T07:20:11.209Z,77.23
2017-09-28T07:21:11.133Z,77.04
2017-09-28T07:22:11.053Z,76.90
2017-09-28T07:23:10.970Z,78.05
2017-09-28T07:24:10.894Z,77.95
2017-09-28T07:25:10.816Z,78.05
2017-09-28T07:26:10.762Z,78.19
2017-09-28T07:27:10.672Z,78.44
2017-09-28T07:28:10.574Z,77.95
2017-09-28T07:29:10.496Z,78.44
2017-09-28T07:30:10.416Z,78.25
2017-09-28T07:31:10.343Z,77.90
2017-09-28T07:32:10.255Z,77.80
2017-09-28T07:33:10.231Z,77.33
2017-09-28T07:34:10.097Z,77.61
2017-09-28T07:35:10.053Z,78.00
2017-09-28T07:36:09.979Z,77.71
2017-09-28T07:37:09.854Z,78.15
2017-09-28T07:38:09.773Z,78.28
2017-09-28T07:39:09.700Z,78.00
2017-09-28T07:40:09.614Z,77.42
2017-09-28T07:41:09.538Z,77.80
2017-09-28T07:42:09.462Z,77.90
2017-09-28T07:43:09.408Z,77.80
2017-09-28T07:44:09.318Z,77.61
2017-09-28T07:45:09.220Z,76.98
2017-09-28T07:46:09.145Z,76.88
2017-09-28T07:47:09.064Z,76.59
2017-09-28T07:48:08.989Z,76.59
2017-09-28T07:49:08.900Z,76.69
2017-09-28T07:50:08.823Z,76.46
2017-09-28T07:51:08.741Z,77.71
2017-09-28T07:52:08.656Z,77.36
2017-09-28T07:53:08.591Z,77.80
2017-09-28T07:54:08.511Z,78.47
2017-09-28T07:55:08.423Z,78.09
2017-09-28T07:56:08.356Z,77.90
2017-09-28T07:57:08.265Z,77.36
2017-09-28T07:58:08.188Z,77.36
2017-09-28T07:59:08.112Z,76.98
2017-09-28T08:00:08.023Z,77.23
2017-09-28T08:01:07.954Z,77.80
2017-09-28T08:02:07.868Z,78.00
2017-09-28T08:03:07.793Z,77.75
2017-09-28T08:04:07.726Z,77.75
2017-09-28T08:05:07.639Z,76.88
2017-09-28T08:06:07.551Z,76.69
2017-09-28T08:07:07.480Z,76.69
2017-09-28T08:08:07.396Z,75.81
2017-09-28T08:09:07.310Z,73.69
2017-09-28T08:10:07.239Z,72.03
2017-09-28T08:11:07.168Z,71.08
2017-09-28T08:12:07.081Z,70.30
2017-09-28T08:13:07.003Z,69.85
2017-09-28T08:14:06.924Z,68.60
2017-09-28T08:15:06.847Z,68.44
2017-09-28T08:16:06.773Z,66.85
2017-09-28T08:17:06.702Z,66.46
2017-09-28T08:18:06.622Z,66.20
2017-09-28T08:19:06.543Z,64.76
2017-09-28T08:20:06.464Z,64.31
2017-09-28T08:21:06.398Z,63.34
2017-09-28T08:22:06.316Z,63.82
2017-09-28T08:23:06.242Z,63.09
2017-09-28T08:24:06.171Z,62.05
2017-09-28T08:25:06.089Z,61.57
2017-09-28T08:26:06.027Z,60.64
2017-09-28T08:27:05.957Z,61.31
2017-09-28T08:28:05.870Z,60.16
2017-09-28T08:29:05.798Z,59.60
2017-09-28T08:30:05.723Z,58.93
2017-09-28T08:31:05.645Z,58.67
2017-09-28T08:32:05.577Z,58.06
2017-09-28T08:33:05.505Z,58.09
2017-09-28T08:34:05.429Z,58.35
2017-09-28T08:35:05.351Z,58.25
2017-09-28T08:36:05.304Z,58.57
2017-09-28T08:37:05.207Z,57.70
2017-09-28T08:38:05.141Z,57.03
2017-09-28T08:39:05.064Z,57.12
2017-09-28T08:40:04.986Z,57.31
2017-09-28T08:41:04.916Z,57.44
2017-09-28T08:42:04.845Z,56.18
2017-09-28T08:43:04.765Z,55.89
2017-09-28T08:44:04.694Z,55.34
2017-09-28T08:45:04.627Z,55.15
2017-09-28T08:46:04.576Z,55.79
2017-09-28T08:47:04.481Z,55.60
2017-09-28T08:48:04.404Z,56.67
2017-09-28T08:49:04.362Z,55.51
2017-09-28T08:50:04.256Z,55.60
2017-09-28T08:51:04.183Z,55.41
2017-09-28T08:52:04.117Z,55.70
2017-09-28T08:53:04.038Z,55.51
2017-09-28T08:54:03.982Z,55.89
2017-09-28T08:55:03.906Z,56.18
2017-09-28T08:56:03.821Z,56.73
2017-09-28T08:57:03.748Z,57.38
2017-09-28T08:58:03.671Z,58.15
2017-09-28T08:59:03.604Z,57.77
2017-09-28T09:00:03.531Z,58.35
2017-09-28T09:01:03.456Z,59.38
2017-09-28T09:02:03.384Z,59.28
2017-09-28T09:03:03.315Z,59.93
2017-09-28T09:04:03.260Z,59.74
2017-09-28T09:05:03.159Z,60.22
2017-09-28T09:06:03.081Z,60.22
2017-09-28T09:07:03.012Z,60.38
2017-09-28T09:08:02.933Z,60.74
2017-09-28T09:09:02.872Z,61.32
2017-09-28T09:10:02.785Z,61.71
2017-09-28T09:11:02.714Z,61.99
2017-09-28T09:12:02.649Z,61.80
2017-09-28T09:13:02.570Z,61.99
2017-09-28T09:14:02.489Z,61.99
2017-09-28T09:15:02.415Z,61.80
2017-09-28T09:16:02.338Z,63.06
2017-09-28T09:17:02.259Z,63.06
2017-09-28T09:18:02.199Z,62.86
2017-09-28T09:19:02.111Z,62.45
2017-09-28T09:20:02.027Z,62.86
2017-09-28T09:21:01.958Z,63.06
2017-09-28T09:22:01.880Z,63.06
2017-09-28T09:23:01.840Z,63.44
2017-09-28T09:24:01.731Z,63.31
2017-09-28T09:25:01.655Z,63.50
2017-09-28T09:26:01.578Z,63.41
2017-09-28T09:27:01.499Z,63.98
2017-09-28T09:28:01.424Z,63.79
2017-09-28T09:29:01.346Z,64.28
2017-09-28T09:30:01.275Z,64.37
2017-09-28T09:31:01.196Z,63.60
2017-09-28T09:32:01.118Z,64.47
2017-09-28T09:33:01.044Z,63.79
2017-09-28T09:34:00.976Z,64.47
2017-09-28T09:35:00.892Z,64.37
2017-09-28T09:36:00.814Z,64.47
2017-09-28T09:37:00.737Z,63.79
2017-09-28T09:38:00.665Z,63.89
2017-09-28T09:39:00.603Z,63.89
2017-09-28T09:40:00.516Z,64.28
2017-09-28T09:41:00.435Z,64.28
2017-09-28T09:42:00.360Z,64.37
2017-09-28T09:43:00.287Z,64.56
2017-09-28T09:44:00.206Z,64.66
2017-09-28T09:45:00.131Z,64.37
2017-09-28T09:46:00.059Z,65.14
2017-09-28T09:46:59.976Z,64.86
2017-09-28T09:47:59.904Z,65.24
2017-09-28T09:48:59.824Z,64.95
2017-09-28T09:49:59.750Z,64.56
2017-09-28T09:50:59.673Z,64.86
2017-09-28T09:51:59.595Z,64.47
2017-09-28T09:52:59.522Z,64.21
2017-09-28T09:53:59.449Z,64.76
2017-09-28T09:54:59.375Z,64.50
2017-09-28T09:55:59.298Z,64.50
2017-09-28T09:56:59.225Z,63.73
2017-09-28T09:57:59.157Z,63.73
2017-09-28T09:58:59.072Z,63.73
2017-09-28T09:59:59.007Z,64.11
2017-09-28T10:00:58.921Z,64.40
2017-09-28T10:01:58.842Z,63.73
2017-09-28T10:02:58.771Z,63.63
2017-09-28T10:03:58.701Z,63.82
2017-09-28T10:04:58.615Z,63.82
2017-09-28T10:05:58.540Z,64.02
2017-09-28T10:06:58.469Z,64.11
2017-09-28T10:07:58.412Z,63.92
2017-09-28T10:08:58.322Z,63.73
2017-09-28T10:09:58.238Z,64.50
2017-09-28T10:10:58.156Z,65.08
2017-09-28T10:11:58.099Z,64.98
2017-09-28T10:12:58.007Z,64.18
2017-09-28T10:13:57.938Z,63.82
2017-09-28T10:14:57.868Z,64.40
2017-09-28T10:15:57.781Z,64.40
2017-09-28T10:16:57.719Z,64.31
2017-09-28T10:17:57.627Z,64.50
2017-09-28T10:18:57.552Z,63.92
2017-09-28T10:19:57.490Z,64.28
2017-09-28T10:20:57.408Z,63.54
2017-09-28T10:21:57.320Z,63.24
2017-09-28T10:22:57.253Z,64.02
2017-09-28T10:23:57.174Z,64.31
2017-09-28T10:24:57.096Z,63.92
2017-09-28T10:25:57.024Z,63.73
2017-09-28T10:26:56.950Z,64.50
2017-09-28T10:27:56.879Z,63.73
2017-09-28T10:28:56.831Z,64.40
2017-09-28T10:29:56.730Z,63.73
2017-09-28T10:30:56.640Z,63.47
2017-09-28T10:31:56.564Z,63.18
2017-09-28T10:32:56.486Z,62.99
2017-09-28T10:33:56.413Z,63.18
2017-09-28T10:34:56.340Z,63.12
2017-09-28T10:35:56.261Z,63.02
2017-09-28T10:36:56.193Z,62.89
2017-09-28T10:37:56.214Z,62.12
2017-09-28T10:38:56.081Z,63.15
2017-09-28T10:39:55.989Z,62.76
2017-09-28T10:40:55.968Z,62.12
2017-09-28T10:41:55.899Z,61.96
2017-09-28T10:42:55.752Z,61.67
2017-09-28T10:43:55.719Z,61.86
2017-09-28T10:44:55.595Z,61.86
2017-09-28T10:45:55.526Z,61.77
2017-09-28T10:46:55.453Z,61.47
2017-09-28T10:47:55.373Z,61.28
2017-09-28T10:48:55.293Z,60.99
2017-09-28T10:49:55.225Z,60.99
2017-09-28T10:50:55.147Z,61.09
2017-09-28T10:51:55.075Z,61.19
2017-09-28T10:52:55.002Z,60.99
2017-09-28T10:53:54.940Z,61.02
2017-09-28T10:54:54.856Z,61.12
2017-09-28T10:55:54.777Z,61.02
2017-09-28T10:56:54.706Z,61.12
2017-09-28T10:57:54.639Z,59.77
2017-09-28T10:58:54.563Z,60.16
2017-09-28T10:59:54.486Z,60.54
2017-09-28T11:00:54.410Z,60.64
2017-09-28T11:01:54.335Z,61.12
2017-09-28T11:02:54.259Z,61.41
2017-09-28T11:03:54.193Z,61.12
2017-09-28T11:04:54.117Z,60.93
2017-09-28T11:05:54.039Z,58.97
2017-09-28T11:06:53.967Z,60.51
2017-09-28T11:07:53.890Z,60.99
2017-09-28T11:08:53.817Z,60.44
2017-09-28T11:09:53.743Z,60.16
2017-09-28T11:10:53.667Z,59.96
2017-09-28T11:11:53.603Z,60.25
2017-09-28T11:12:53.524Z,60.54
2017-09-28T11:13:53.449Z,60.25
2017-09-28T11:14:53.379Z,60.96
2017-09-28T11:15:53.310Z,60.28
2017-09-28T11:16:53.240Z,60.18
2017-09-28T11:17:53.155Z,59.41
2017-09-28T11:18:53.084Z,59.63
2017-09-28T11:19:53.009Z,59.05
2017-09-28T11:20:52.935Z,58.37
2017-09-28T11:21:52.864Z,58.86
2017-09-28T11:22:52.786Z,59.66
2017-09-28T11:23:52.721Z,59.38
2017-09-28T11:24:52.658Z,58.50
2017-09-28T11:25:52.577Z,59.18
2017-09-28T11:26:52.506Z,58.44
2017-09-28T11:27:52.432Z,58.72
2017-09-28T11:28:52.384Z,56.50
2017-09-28T11:29:52.294Z,55.05
2017-09-28T11:30:52.225Z,54.85
2017-09-28T11:31:52.153Z,55.63
2017-09-28T11:32:52.080Z,55.51
2017-09-28T11:33:52.018Z,54.93
2017-09-28T11:34:51.942Z,55.51
2017-09-28T11:35:51.867Z,55.21
2017-09-28T11:36:51.798Z,55.21
2017-09-28T11:37:51.725Z,55.41
2017-09-28T11:38:51.648Z,55.43
2017-09-28T11:39:51.571Z,55.43
2017-09-28T11:40:51.505Z,55.76
2017-09-28T11:41:51.437Z,55.07
2017-09-28T11:42:51.357Z,53.72
2017-09-28T11:43:51.280Z,53.81
2017-09-28T11:44:51.218Z,53.33
2017-09-28T11:45:51.138Z,53.85
2017-09-28T11:46:51.070Z,53.85
2017-09-28T11:47:50.994Z,53.94
2017-09-28T11:48:50.923Z,53.75
2017-09-28T11:49:50.860Z,54.13
2017-09-28T11:50:50.800Z,54.91
2017-09-28T11:51:50.714Z,54.71
2017-09-28T11:52:50.637Z,55.00
2017-09-28T11:53:50.561Z,54.81
2017-09-28T11:54:50.484Z,54.11
2017-09-28T11:55:50.443Z,54.59
2017-09-28T11:56:50.342Z,54.59
2017-09-28T11:57:50.277Z,54.49
2017-09-28T11:58:50.193Z,54.11
2017-09-28T11:59:50.128Z,54.08
2017-09-28T12:00:50.054Z,54.75
2017-09-28T12:01:49.986Z,54.37
2017-09-28T12:02:49.930Z,55.05
2017-09-28T12:03:49.837Z,54.66
2017-09-28T12:04:49.760Z,53.50
2017-09-28T12:05:49.688Z,54.88
2017-09-28T12:06:49.613Z,54.39
2017-09-28T12:07:49.537Z,55.27
2017-09-28T12:08:49.466Z,54.59
2017-09-28T12:09:49.397Z,55.00
2017-09-28T12:10:49.321Z,54.03
2017-09-28T12:11:49.249Z,54.39
2017-09-28T12:12:49.179Z,55.78
2017-09-28T12:13:49.131Z,55.36
2017-09-28T12:14:49.033Z,55.17
2017-09-28T12:15:48.956Z,55.27
2017-09-28T12:16:48.890Z,54.59
2017-09-28T12:17:48.811Z,55.07
2017-09-28T12:18:48.741Z,55.36
2017-09-28T12:19:48.664Z,54.49
2017-09-28T12:20:48.600Z,53.53
2017-09-28T12:21:48.522Z,53.72
2017-09-28T12:22:48.446Z,54.79
2017-09-28T12:23:48.375Z,54.69
2017-09-28T12:24:48.301Z,55.27
2017-09-28T12:25:48.238Z,53.50
2017-09-28T12:26:48.159Z,53.21
2017-09-28T12:27:48.084Z,53.50
2017-09-28T12:28:48.016Z,53.79
2017-09-28T12:29:47.959Z,53.79
2017-09-28T12:30:47.860Z,53.31
2017-09-28T12:31:47.818Z,53.99
2017-09-28T12:32:47.712Z,54.73
2017-09-28T12:33:47.645Z,54.63
2017-09-28T12:34:47.567Z,54.93
2017-09-28T12:35:47.507Z,54.83
2017-09-28T12:36:47.434Z,54.66
2017-09-28T12:37:47.350Z,54.85
2017-09-28T12:38:47.275Z,53.79
2017-09-28T12:39:47.207Z,53.99
2017-09-28T12:40:47.126Z,53.96
2017-09-28T12:41:47.050Z,53.69
2017-09-28T12:42:46.984Z,54.57
2017-09-28T12:43:46.904Z,55.05
2017-09-28T12:44:46.834Z,54.57
2017-09-28T12:45:46.758Z,53.59
2017-09-28T12:46:46.691Z,53.11
2017-09-28T12:47:46.610Z,53.31
2017-09-28T12:48:46.540Z,53.31
2017-09-28T12:49:46.462Z,53.50
2017-09-28T12:50:46.384Z,53.69
2017-09-28T12:51:46.324Z,54.59